Date,TemperatureHighF,TemperatureAvgF,TemperatureLowF,DewpointHighF,DewpointAvgF,DewpointLowF,HumidityHigh,HumidityAvg,HumidityLow,PressureMaxIn,PressureMinIn,WindSpeedMaxMPH,WindSpeedAvgMPH,GustSpeedMaxMPH,PrecipitationSumIn
2013-1-1,63,56,45,62,55,44,99,96,89,30.15,29.94,11,3,11,0.85
2013-1-2,45,41,37,44,38,32,99,90,81,30.27,30.12,10,3,10,0.00
2013-1-3,56,40,34,32,28,22,82,63,29,30.42,30.25,9,3,9,0.00
2013-1-4,55,46,32,32,26,21,81,49,29,30.49,30.39,7,3,7,0.00
2013-1-5,54,54,54,25,25,25,32,32,32,30.45,30.45,3,3,3,0.00
2013-1-6,54,54,54,25,25,25,32,32,32,30.45,30.45,3,3,3,0.00
2013-1-7,54,54,54,25,25,25,32,32,32,30.45,30.45,3,3,3,0.00
2013-1-8,54,54,54,25,25,25,32,32,32,30.45,30.45,3,3,3,0.00
2013-1-9,67,60,54,66,48,25,99,70,32,30.45,30.13,9,3,9,2.50
2013-1-10,68,65,62,68,64,61,99,97,93,30.19,29.97,21,4,21,0.92
2013-1-11,71,66,63,68,65,62,99,96,86,30.13,29.85,8,3,8,0.18
2013-1-12,80,71,68,69,67,64,99,89,65,30.06,29.92,17,6,17,0.01
2013-1-13,74,61,43,70,59,42,99,92,78,30.15,29.85,17,6,21,0.56
2013-1-14,43,39,34,43,39,33,99,98,96,30.21,30.09,14,4,14,0.74
2013-1-15,41,38,35,41,38,35,99,99,97,30.14,30.00,9,3,9,0.66
2013-1-16,36,34,33,35,34,33,99,98,97,30.17,30.04,12,4,12,0.07
2013-1-17,55,41,32,38,34,32,99,78,43,30.46,30.15,18,5,18,0.01
2013-1-18,69,45,32,38,31,23,99,65,19,30.57,29.86,9,2,9,0.00
2013-1-19,70,48,31,47,39,30,99,75,39,30.42,30.26,10,1,10,0.00
2013-1-20,75,51,36,53,38,27,99,68,19,30.30,30.16,6,1,6,0.00
2013-1-21,68,46,38,50,40,38,99,83,37,30.25,30.16,8,1,8,0.00